Time;durP1;ratioP1;P1;durP2;ratioP2;P2;SDS_P1;SDS_P2;PMS_P1;PMS_P2;Temp;Humidity;BMP_temperature;BMP_pressure;BME280_temperature;BME280_humidity;BME280_pressure;Samples;Min_cycle;Max_cycle;Signal;HPM_P1;HPM_P2
2021/08/14 00:02:13;;;;;;;0.70;0.70;;;25.70;63.20;;;;;;5031849;28;20025;-77
2021/08/14 00:04:38;;;;;;;0.60;0.60;;;25.90;63.00;;;;;;5032161;28;20033;-78
2021/08/14 00:07:05;;;;;;;0.60;0.60;;;26.00;62.40;;;;;;5032236;28;20029;-78
2021/08/14 00:09:33;;;;;;;0.65;0.65;;;26.00;62.80;;;;;;5032342;28;20092;-79
2021/08/14 00:12:00;;;;;;;2.90;1.67;;;25.90;62.90;;;;;;5013832;28;20045;-78
2021/08/14 00:14:25;;;;;;;0.70;0.70;;;25.90;63.30;;;;;;5032008;28;20409;-78
2021/08/14 00:16:51;;;;;;;0.70;0.70;;;25.90;63.40;;;;;;5031785;28;20473;-78
2021/08/14 00:19:17;;;;;;;1.13;1.02;;;25.80;62.90;;;;;;5031568;28;20018;-77
2021/08/14 00:21:42;;;;;;;0.73;0.73;;;25.60;62.80;;;;;;5031789;28;20136;-78
2021/08/14 00:24:08;;;;;;;1.10;0.85;;;25.60;63.90;;;;;;5031596;28;20528;-78
2021/08/14 00:26:34;;;;;;;1.25;1.15;;;25.80;63.80;;;;;;5031867;28;20542;-76
2021/08/14 00:29:00;;;;;;;2.15;0.93;;;25.80;63.80;;;;;;5031811;28;20104;-79
2021/08/14 00:31:26;;;;;;;0.95;0.90;;;25.80;63.30;;;;;;5032292;28;20026;-77
2021/08/14 00:33:51;;;;;;;3.05;2.55;;;25.80;63.60;;;;;;5031339;28;20033;-77
2021/08/14 00:36:17;;;;;;;3.72;3.40;;;25.80;63.40;;;;;;5031857;28;20049;-79
2021/08/14 00:38:43;;;;;;;2.53;2.33;;;25.80;63.10;;;;;;5031665;28;20025;-75
2021/08/14 00:41:09;;;;;;;1.45;1.35;;;25.60;63.70;;;;;;5031783;28;20095;-76
2021/08/14 00:43:35;;;;;;;1.50;1.40;;;25.60;65.40;;;;;;5031400;28;20037;-78
2021/08/14 00:46:01;;;;;;;2.97;1.67;;;25.60;63.40;;;;;;5032061;28;20029;-77
2021/08/14 00:48:28;;;;;;;0.98;0.93;;;25.60;64.40;;;;;;5031388;28;20040;-77
2021/08/14 00:50:54;;;;;;;0.85;0.85;;;25.50;63.80;;;;;;5031695;28;20048;-77
2021/08/14 00:53:20;;;;;;;3.53;1.05;;;25.30;64.00;;;;;;5031292;28;20374;-78
2021/08/14 00:55:47;;;;;;;3.05;1.77;;;25.40;63.80;;;;;;5031574;28;20405;-77
2021/08/14 00:58:13;;;;;;;1.27;1.17;;;25.20;65.20;;;;;;5031088;28;20029;-78
2021/08/14 01:00:40;;;;;;;0.80;0.80;;;25.50;64.80;;;;;;5031630;28;20091;-76
2021/08/14 01:03:06;;;;;;;1.85;1.70;;;25.60;64.60;;;;;;5031865;28;20030;-79
2021/08/14 01:05:33;;;;;;;0.60;0.60;;;25.50;64.30;;;;;;5037733;28;20032;-78
2021/08/14 01:07:59;;;;;;;1.23;1.13;;;25.30;65.00;;;;;;5038190;28;20465;-78
2021/08/14 01:10:25;;;;;;;0.90;0.90;;;25.40;65.30;;;;;;5037922;28;20095;-77
2021/08/14 01:12:53;;;;;;;0.60;0.60;;;25.40;64.60;;;;;;5037369;28;20033;-78
2021/08/14 01:15:19;;;;;;;1.52;1.23;;;25.50;65.00;;;;;;5038439;28;20068;-77
2021/08/14 01:17:44;;;;;;;0.60;0.60;;;25.60;65.40;;;;;;5038143;28;20060;-77
2021/08/14 01:20:11;;;;;;;0.95;0.95;;;25.50;65.10;;;;;;5037384;28;20037;-75
2021/08/14 01:22:39;;;;;;;3.20;1.80;;;25.50;65.50;;;;;;5019829;28;20024;-83
2021/08/14 01:25:07;;;;;;;1.30;1.23;;;25.50;65.50;;;;;;5037488;28;20021;-83
2021/08/14 01:27:35;;;;;;;2.78;2.58;;;25.50;66.40;;;;;;5019925;28;20032;-82
2021/08/14 01:30:03;;;;;;;2.28;1.75;;;25.50;65.40;;;;;;5020040;28;20030;-84
2021/08/14 01:32:29;;;;;;;1.90;1.70;;;25.50;65.70;;;;;;5019778;28;20464;-83
2021/08/14 01:34:55;;;;;;;0.70;0.70;;;25.50;65.70;;;;;;5019582;28;20071;-83
2021/08/14 01:37:21;;;;;;;2.03;1.88;;;25.10;66.00;;;;;;5037519;28;20033;-82
2021/08/14 01:39:47;;;;;;;0.52;0.52;;;24.60;66.10;;;;;;5037263;28;20030;-83
2021/08/14 01:42:12;;;;;;;0.95;0.90;;;24.40;66.80;;;;;;5019382;28;20037;-82
2021/08/14 01:44:38;;;;;;;0.70;0.70;;;24.60;67.70;;;;;;5019959;28;20528;-80
2021/08/14 01:47:05;;;;;;;1.00;0.98;;;25.20;66.90;;;;;;5037573;28;20108;-82
2021/08/14 01:49:31;;;;;;;0.70;0.70;;;25.20;67.10;;;;;;5037353;28;20044;-79
2021/08/14 01:51:56;;;;;;;0.63;0.63;;;25.30;66.50;;;;;;5019405;28;20026;-82
2021/08/14 01:54:22;;;;;;;0.70;0.70;;;25.30;66.90;;;;;;5037112;28;20046;-83
2021/08/14 01:56:51;;;;;;;1.20;1.08;;;25.20;66.60;;;;;;5037228;28;20488;-78
2021/08/14 01:59:17;;;;;;;0.60;0.60;;;25.20;66.50;;;;;;5020081;28;20028;-79
2021/08/14 02:01:43;;;;;;;1.80;1.30;;;25.20;67.10;;;;;;5037324;28;20041;-79
2021/08/14 02:04:09;;;;;;;0.70;0.70;;;25.20;67.80;;;;;;5020140;28;20071;-79
2021/08/14 02:06:35;;;;;;;0.60;0.60;;;25.20;67.30;;;;;;5037279;28;20025;-79
2021/08/14 02:09:01;;;;;;;0.80;0.80;;;25.20;67.30;;;;;;5037593;28;20520;-80
2021/08/14 02:11:29;;;;;;;1.70;1.58;;;25.00;67.90;;;;;;5037139;28;20513;-79
2021/08/14 02:13:56;;;;;;;0.60;0.60;;;24.80;68.40;;;;;;5037476;28;20064;-79
2021/08/14 02:16:23;;;;;;;0.98;0.98;;;24.90;68.50;;;;;;5034338;28;20022;-80
2021/08/14 02:18:49;;;;;;;1.42;1.33;;;24.90;67.90;;;;;;5034460;28;20076;-78
2021/08/14 02:21:15;;;;;;;1.65;1.23;;;25.00;67.70;;;;;;5033944;28;20091;-77
2021/08/14 02:23:41;;;;;;;1.35;0.85;;;24.90;67.20;;;;;;5034061;28;20025;-78
2021/08/14 02:26:07;;;;;;;0.75;0.75;;;24.80;68.10;;;;;;5016627;28;20025;-79
2021/08/14 02:28:33;;;;;;;1.13;1.08;;;24.80;68.40;;;;;;5016081;28;20025;-78
2021/08/14 02:31:00;;;;;;;0.70;0.70;;;24.70;68.80;;;;;;5034509;28;20389;-77
2021/08/14 02:33:26;;;;;;;6.47;1.50;;;24.70;68.30;;;;;;5034148;28;20057;-77
2021/08/14 02:35:52;;;;;;;0.70;0.70;;;24.60;69.10;;;;;;5033849;28;20057;-79
2021/08/14 02:38:18;;;;;;;1.10;1.08;;;24.40;68.90;;;;;;5033683;28;20029;-76
2021/08/14 02:40:48;;;;;;;0.90;0.90;;;24.40;69.60;;;;;;5016535;28;20393;-79
2021/08/14 02:43:15;;;;;;;1.55;1.27;;;24.30;69.80;;;;;;5033858;28;20022;-78
2021/08/14 02:45:41;;;;;;;1.75;1.63;;;24.40;69.30;;;;;;5034541;28;20684;-78
2021/08/14 02:48:07;;;;;;;1.75;0.77;;;24.60;68.90;;;;;;5034291;28;20091;-77
2021/08/14 02:50:33;;;;;;;8.70;2.45;;;24.70;68.50;;;;;;5033915;28;20103;-78
2021/08/14 02:52:59;;;;;;;2.08;1.23;;;24.70;68.50;;;;;;5033590;28;20429;-77
2021/08/14 02:55:25;;;;;;;1.17;1.08;;;24.40;69.70;;;;;;5033844;28;20104;-77
2021/08/14 02:57:51;;;;;;;0.70;0.70;;;24.30;70.40;;;;;;5033835;28;20053;-77
2021/08/14 03:00:17;;;;;;;1.80;1.15;;;24.20;70.10;;;;;;5033164;28;20064;-77
2021/08/14 03:02:43;;;;;;;2.95;1.60;;;24.20;70.30;;;;;;5015786;28;20069;-78
2021/08/14 03:05:09;;;;;;;0.80;0.80;;;24.30;69.90;;;;;;5033497;28;20057;-77
2021/08/14 03:07:35;;;;;;;0.80;0.80;;;24.30;70.50;;;;;;5033159;28;20096;-77
2021/08/14 03:10:01;;;;;;;0.70;0.70;;;24.30;71.10;;;;;;5033322;28;20117;-76
2021/08/14 03:12:27;;;;;;;2.05;1.60;;;24.30;71.80;;;;;;5033337;28;20416;-78
2021/08/14 03:14:53;;;;;;;1.20;1.02;;;24.40;71.40;;;;;;5015573;28;20458;-78
2021/08/14 03:17:19;;;;;;;0.90;0.90;;;24.30;70.90;;;;;;5033335;28;20083;-77
2021/08/14 03:19:45;;;;;;;0.70;0.70;;;24.30;70.60;;;;;;5015606;28;20478;-77
2021/08/14 03:22:11;;;;;;;1.00;1.00;;;24.40;71.20;;;;;;5015346;28;20189;-79
2021/08/14 03:24:37;;;;;;;0.98;0.98;;;24.40;71.10;;;;;;5033479;28;20562;-78
2021/08/14 03:27:04;;;;;;;0.70;0.70;;;24.40;71.40;;;;;;5033203;28;20017;-79
2021/08/14 03:29:30;;;;;;;0.75;0.75;;;24.40;71.40;;;;;;5015605;28;20469;-79
2021/08/14 03:31:56;;;;;;;0.98;0.98;;;24.40;71.20;;;;;;5032979;28;20037;-79
2021/08/14 03:34:21;;;;;;;1.67;1.27;;;24.20;71.80;;;;;;5033394;28;20021;-78
2021/08/14 03:36:47;;;;;;;1.50;1.40;;;24.20;73.00;;;;;;5015405;28;20035;-78
2021/08/14 03:39:13;;;;;;;0.73;0.73;;;24.30;72.70;;;;;;5032899;28;20025;-78
2021/08/14 03:41:39;;;;;;;2.47;1.60;;;24.20;73.30;;;;;;5033344;28;20038;-77
2021/08/14 03:44:05;;;;;;;0.80;0.80;;;24.20;72.70;;;;;;5033415;28;20014;-78
2021/08/14 03:46:31;;;;;;;0.80;0.80;;;24.30;72.70;;;;;;5033273;28;20124;-77
2021/08/14 03:48:57;;;;;;;0.68;0.68;;;24.40;72.80;;;;;;5032556;28;20492;-77
2021/08/14 03:51:23;;;;;;;0.70;0.70;;;24.20;73.00;;;;;;5032308;28;20474;-77
2021/08/14 03:53:49;;;;;;;1.38;1.27;;;24.10;73.40;;;;;;5032786;28;20033;-77
2021/08/14 03:56:15;;;;;;;1.00;1.00;;;24.20;73.00;;;;;;5032803;28;20022;-77
2021/08/14 03:58:40;;;;;;;0.80;0.80;;;24.00;73.30;;;;;;5032906;28;20025;-77
2021/08/14 04:01:07;;;;;;;1.80;1.70;;;24.00;74.30;;;;;;5032927;28;20120;-78
2021/08/14 04:03:32;;;;;;;1.15;1.13;;;23.90;74.20;;;;;;5032259;28;20065;-77
2021/08/14 04:05:58;;;;;;;0.73;0.73;;;23.90;73.70;;;;;;5032799;28;20063;-77
2021/08/14 04:08:24;;;;;;;0.95;0.95;;;24.00;73.80;;;;;;5014675;28;20021;-78
2021/08/14 04:10:50;;;;;;;2.78;2.28;;;23.80;74.20;;;;;;5032183;28;20077;-78
2021/08/14 04:13:18;;;;;;;0.70;0.70;;;24.00;75.00;;;;;;5032435;28;20050;-77
2021/08/14 04:15:44;;;;;;;0.80;0.80;;;24.00;74.10;;;;;;5014710;28;20036;-78
2021/08/14 04:18:09;;;;;;;0.73;0.73;;;24.00;74.80;;;;;;5031922;28;20025;-78
2021/08/14 04:20:35;;;;;;;1.00;0.95;;;23.90;75.00;;;;;;5032121;28;20083;-79
2021/08/14 04:23:01;;;;;;;0.70;0.70;;;24.00;75.10;;;;;;5032307;28;20026;-78
2021/08/14 04:25:27;;;;;;;0.85;0.85;;;24.10;73.90;;;;;;5031862;28;20087;-78
2021/08/14 04:27:53;;;;;;;0.88;0.88;;;24.20;74.20;;;;;;5032073;28;20025;-79
2021/08/14 04:30:19;;;;;;;1.75;1.17;;;24.20;74.00;;;;;;5032201;28;20050;-78
2021/08/14 04:32:44;;;;;;;1.83;1.67;;;24.10;75.40;;;;;;5031810;28;20029;-77
2021/08/14 04:35:15;;;;;;;0.98;0.98;;;24.10;75.20;;;;;;5032514;28;20025;-79
2021/08/14 04:37:41;;;;;;;1.33;1.02;;;24.00;76.00;;;;;;5031706;28;20735;-76
2021/08/14 04:40:10;;;;;;;1.15;1.05;;;23.90;75.50;;;;;;5031658;28;20045;-78
2021/08/14 04:42:36;;;;;;;0.70;0.70;;;23.90;76.10;;;;;;5032022;28;20033;-79
2021/08/14 04:45:04;;;;;;;1.83;1.73;;;23.90;76.50;;;;;;5031852;28;20017;-79
2021/08/14 04:47:30;;;;;;;0.77;0.77;;;24.00;75.80;;;;;;5031201;28;20030;-78
2021/08/14 04:49:56;;;;;;;0.80;0.80;;;24.00;76.10;;;;;;5031563;28;20072;-78
2021/08/14 04:52:21;;;;;;;1.48;1.13;;;24.00;75.20;;;;;;5031568;28;20153;-77
2021/08/14 04:54:47;;;;;;;7.60;3.20;;;24.00;75.50;;;;;;5032023;28;20033;-79
2021/08/14 04:57:13;;;;;;;1.17;1.08;;;24.20;75.50;;;;;;5031390;28;20584;-79
2021/08/14 04:59:38;;;;;;;1.38;1.23;;;24.20;75.90;;;;;;5031825;28;20033;-77
2021/08/14 05:02:04;;;;;;;0.98;0.98;;;24.30;75.70;;;;;;5031397;28;20033;-79
2021/08/14 05:04:30;;;;;;;0.70;0.70;;;24.30;75.80;;;;;;5031743;28;20052;-79
2021/08/14 05:06:57;;;;;;;0.85;0.85;;;24.40;76.00;;;;;;5031776;28;20029;-79
2021/08/14 05:09:22;;;;;;;0.93;0.93;;;24.50;75.60;;;;;;5031256;28;20386;-78
2021/08/14 05:11:48;;;;;;;0.70;0.70;;;24.40;76.80;;;;;;5030927;28;20531;-77
2021/08/14 05:14:14;;;;;;;1.00;0.90;;;24.40;76.50;;;;;;5031155;28;20481;-79
2021/08/14 05:16:40;;;;;;;1.30;1.17;;;24.40;76.30;;;;;;5031377;28;20036;-78
2021/08/14 05:19:09;;;;;;;3.45;2.00;;;24.30;76.70;;;;;;5031261;28;20034;-77
2021/08/14 05:21:35;;;;;;;0.70;0.70;;;24.30;77.00;;;;;;5013435;28;20072;-78
2021/08/14 05:24:02;;;;;;;0.98;0.98;;;24.20;77.20;;;;;;5031330;28;20021;-78
2021/08/14 05:26:28;;;;;;;0.95;0.95;;;24.30;77.10;;;;;;5030950;28;20056;-78
2021/08/14 05:28:54;;;;;;;1.25;1.10;;;24.40;76.70;;;;;;5031316;28;20049;-79
2021/08/14 05:31:20;;;;;;;1.40;1.30;;;24.30;76.20;;;;;;5031071;28;20552;-79
2021/08/14 05:33:46;;;;;;;1.13;1.02;;;24.20;76.40;;;;;;5030541;28;20031;-80
2021/08/14 05:36:12;;;;;;;1.83;1.73;;;24.20;77.10;;;;;;5031384;28;20490;-80
2021/08/14 05:38:38;;;;;;;0.80;0.80;;;24.20;76.80;;;;;;5031109;28;20025;-76
2021/08/14 05:41:05;;;;;;;1.20;1.13;;;24.40;76.60;;;;;;5031028;28;20432;-79
2021/08/14 05:43:31;;;;;;;1.67;1.58;;;24.40;76.40;;;;;;5013321;28;20047;-78
2021/08/14 05:45:56;;;;;;;1.92;1.42;;;24.60;76.10;;;;;;5031730;28;20096;-79
2021/08/14 05:48:22;;;;;;;0.82;0.82;;;24.60;75.10;;;;;;5030864;28;20473;-80
2021/08/14 05:50:48;;;;;;;1.13;1.05;;;24.60;74.80;;;;;;5032010;28;20233;-79
2021/08/14 05:53:15;;;;;;;1.77;1.67;;;24.60;75.40;;;;;;5034501;28;20378;-79
2021/08/14 05:55:40;;;;;;;0.90;0.90;;;24.60;75.40;;;;;;5035183;28;20092;-78
2021/08/14 05:58:06;;;;;;;0.90;0.88;;;24.70;75.40;;;;;;5034594;28;20393;-78
2021/08/14 06:00:32;;;;;;;0.82;0.82;;;24.90;75.50;;;;;;5034510;28;20040;-80
2021/08/14 06:02:58;;;;;;;1.70;1.33;;;24.80;74.30;;;;;;5017010;28;20451;-79
2021/08/14 06:05:24;;;;;;;0.70;0.70;;;24.80;74.30;;;;;;5034943;28;20022;-77
2021/08/14 06:07:50;;;;;;;0.82;0.82;;;24.80;74.30;;;;;;5034644;28;20445;-78
2021/08/14 06:10:20;;;;;;;1.48;1.38;;;24.90;74.40;;;;;;5034767;28;20072;-78
2021/08/14 06:12:46;;;;;;;0.90;0.90;;;25.00;74.70;;;;;;5034405;28;20033;-77
2021/08/14 06:15:13;;;;;;;1.35;1.25;;;25.10;74.90;;;;;;5034750;28;20072;-77
2021/08/14 06:17:39;;;;;;;1.20;1.10;;;25.20;74.50;;;;;;5034122;28;20453;-79
2021/08/14 06:20:06;;;;;;;3.97;3.60;;;25.30;74.50;;;;;;5016612;28;20481;-78
2021/08/14 06:22:35;;;;;;;8.57;6.50;;;25.40;74.50;;;;;;5034428;28;20448;-78
2021/08/14 06:25:02;;;;;;;22.38;6.50;;;25.40;74.10;;;;;;5034218;28;20022;-79
2021/08/14 06:27:28;;;;;;;6.28;4.63;;;25.40;74.20;;;;;;5034106;28;20083;-81
2021/08/14 06:29:53;;;;;;;12.20;6.55;;;25.50;74.30;;;;;;5034372;28;20034;-79
2021/08/14 06:32:19;;;;;;;2.53;2.30;;;25.50;74.10;;;;;;5033782;28;20112;-76
2021/08/14 06:34:45;;;;;;;1.88;1.75;;;25.50;75.40;;;;;;5033250;28;20025;-76
2021/08/14 06:37:11;;;;;;;1.08;1.08;;;25.70;74.30;;;;;;5033341;28;20477;-80
2021/08/14 06:39:37;;;;;;;2.30;2.10;;;25.80;73.50;;;;;;5033182;28;20032;-80
2021/08/14 06:42:03;;;;;;;1.23;1.13;;;26.00;73.10;;;;;;5033266;28;20052;-77
2021/08/14 06:44:30;;;;;;;2.75;2.35;;;25.80;73.40;;;;;;5032845;28;20029;-78
2021/08/14 06:46:56;;;;;;;3.25;1.73;;;25.80;73.70;;;;;;5015663;28;20029;-81
2021/08/14 06:49:22;;;;;;;1.92;1.67;;;25.80;72.90;;;;;;5033423;28;20087;-78
2021/08/14 06:51:48;;;;;;;1.45;1.30;;;25.80;72.80;;;;;;5032974;28;20079;-79
2021/08/14 06:54:14;;;;;;;0.63;0.63;;;25.80;72.80;;;;;;5032891;28;20526;-80
2021/08/14 06:56:39;;;;;;;0.90;0.90;;;25.80;73.20;;;;;;5033063;28;20048;-81
2021/08/14 06:59:05;;;;;;;1.98;1.42;;;25.80;73.20;;;;;;5032638;28;20481;-80
2021/08/14 07:01:31;;;;;;;0.60;0.60;;;25.90;73.70;;;;;;5032869;28;20029;-82
2021/08/14 07:03:56;;;;;;;0.80;0.80;;;26.00;73.20;;;;;;5033114;28;20120;-84
2021/08/14 07:06:23;;;;;;;1.85;1.50;;;26.10;73.00;;;;;;5015412;28;20052;-82
2021/08/14 07:08:50;;;;;;;1.55;1.45;;;26.20;72.60;;;;;;5033065;28;20025;-80
2021/08/14 07:11:17;;;;;;;1.40;1.30;;;26.20;72.20;;;;;;5033228;28;20056;-73
2021/08/14 07:13:43;;;;;;;2.20;2.00;;;26.20;72.70;;;;;;5015141;28;20489;-78
2021/08/14 07:16:09;;;;;;;6.57;3.03;;;26.30;73.30;;;;;;5033617;28;20500;-77
2021/08/14 07:18:35;;;;;;;7.18;2.58;;;26.20;73.20;;;;;;5015310;28;20034;-76
2021/08/14 07:21:01;;;;;;;1.50;1.40;;;26.30;73.60;;;;;;5015300;28;20041;-81
2021/08/14 07:23:27;;;;;;;0.70;0.70;;;26.50;72.80;;;;;;5032590;28;20025;-73
2021/08/14 07:25:53;;;;;;;2.80;2.53;;;26.60;72.30;;;;;;5015756;28;20470;-82
2021/08/14 07:28:20;;;;;;;1.52;1.40;;;26.60;72.80;;;;;;5032967;28;20022;-81
2021/08/14 07:30:46;;;;;;;2.75;2.55;;;26.60;72.80;;;;;;5033037;28;20648;-82
2021/08/14 07:33:16;;;;;;;0.75;0.75;;;26.50;72.40;;;;;;5032547;28;20041;-83
2021/08/14 07:35:42;;;;;;;1.13;1.02;;;26.60;72.50;;;;;;5032915;28;20020;-83
2021/08/14 07:38:08;;;;;;;1.05;1.00;;;26.60;72.70;;;;;;5032846;28;20367;-85
2021/08/14 07:40:34;;;;;;;1.38;1.27;;;26.70;72.40;;;;;;5032879;28;20528;-84
2021/08/14 07:43:00;;;;;;;1.15;1.05;;;26.70;71.70;;;;;;5032720;28;20393;-84
2021/08/14 07:45:26;;;;;;;1.35;1.25;;;26.70;72.10;;;;;;5032137;28;20025;-81
2021/08/14 07:47:52;;;;;;;1.65;1.55;;;26.70;72.10;;;;;;5032474;28;20029;-77
2021/08/14 07:50:22;;;;;;;0.70;0.70;;;26.70;72.00;;;;;;5032543;28;20014;-83
2021/08/14 07:52:48;;;;;;;;;;;27.00;71.80;;;;;;5032503;28;20021;-80
2021/08/14 07:55:15;;;;;;;4.03;2.00;;;27.10;70.80;;;;;;5032562;28;19950;-83
2021/08/14 07:57:41;;;;;;;3.78;1.77;;;27.10;70.60;;;;;;5032303;28;20033;-83
2021/08/14 08:00:10;;;;;;;1.38;1.27;;;27.30;69.30;;;;;;5032164;28;20040;-79
2021/08/14 08:02:36;;;;;;;2.30;1.83;;;27.40;69.00;;;;;;5032372;28;20099;-82
2021/08/14 08:05:02;;;;;;;3.28;2.65;;;27.40;69.70;;;;;;5032115;28;20452;-80
2021/08/14 08:07:29;;;;;;;2.53;1.58;;;27.50;69.00;;;;;;5031889;28;20032;-79
2021/08/14 08:09:55;;;;;;;3.15;1.80;;;27.40;68.80;;;;;;5023458;28;20029;-78
2021/08/14 08:12:21;;;;;;;2.67;1.08;;;27.50;68.80;;;;;;5025332;28;20048;-73
2021/08/14 08:14:47;;;;;;;0.95;0.82;;;27.60;68.30;;;;;;5029433;28;20053;-80
2021/08/14 08:17:12;;;;;;;0.90;0.90;;;27.60;68.70;;;;;;5031337;28;20038;-78
2021/08/14 08:19:38;;;;;;;1.05;0.95;;;27.70;68.60;;;;;;5034301;28;20595;-77
2021/08/14 08:22:04;;;;;;;0.80;0.80;;;27.80;68.00;;;;;;5050424;28;20091;-77
2021/08/14 08:24:30;;;;;;;0.60;0.60;;;27.80;68.20;;;;;;5047552;28;20423;-74
2021/08/14 08:26:56;;;;;;;2.78;0.95;;;27.70;68.50;;;;;;5051266;28;20021;-77
2021/08/14 08:29:22;;;;;;;1.77;1.27;;;27.80;68.50;;;;;;5033863;28;20021;-78
2021/08/14 08:31:47;;;;;;;0.70;0.70;;;28.00;67.90;;;;;;5047692;28;20477;-74
2021/08/14 08:34:13;;;;;;;0.65;0.65;;;28.00;68.60;;;;;;5030780;28;20053;-73
2021/08/14 08:36:39;;;;;;;1.20;1.02;;;28.00;68.20;;;;;;5029192;28;20033;-74
2021/08/14 08:39:05;;;;;;;0.77;0.75;;;28.10;67.90;;;;;;5033438;28;20030;-77
2021/08/14 08:41:31;;;;;;;0.82;0.75;;;28.20;68.00;;;;;;5035041;28;20493;-76
2021/08/14 08:43:58;;;;;;;0.90;0.85;;;28.30;67.40;;;;;;5017482;28;20036;-83
2021/08/14 08:46:26;;;;;;;0.98;0.73;;;28.40;67.60;;;;;;5031461;28;20166;-80
2021/08/14 08:48:52;;;;;;;2.08;1.40;;;28.50;67.70;;;;;;5012518;28;20033;-75
2021/08/14 08:51:24;;;;;;;2.00;1.17;;;28.60;67.60;;;;;;5012258;28;20116;-77
2021/08/14 08:53:50;;;;;;;0.70;0.70;;;28.60;66.90;;;;;;5030498;28;20022;-79
2021/08/14 08:56:16;;;;;;;0.80;0.80;;;28.60;67.50;;;;;;5031249;28;20021;-82
2021/08/14 08:58:42;;;;;;;1.85;1.17;;;28.60;66.50;;;;;;5013662;28;20075;-79
2021/08/14 09:01:07;;;;;;;1.45;1.08;;;28.80;66.10;;;;;;5031485;28;20436;-82
2021/08/14 09:03:33;;;;;;;0.77;0.77;;;29.10;65.90;;;;;;5031586;28;20133;-79
2021/08/14 09:06:00;;;;;;;0.40;0.40;;;29.50;65.40;;;;;;5031248;28;20068;-79
2021/08/14 09:08:26;;;;;;;0.77;0.77;;;29.60;64.00;;;;;;5031478;28;20022;-83
2021/08/14 09:11:10;;;;;;;0.45;0.45;;;29.70;63.80;;;;;;5031126;28;20052;-80
2021/08/14 09:13:39;;;;;;;2.50;1.58;;;30.00;63.70;;;;;;5031421;28;20029;-81
2021/08/14 09:16:18;;;;;;;0.98;0.88;;;30.20;62.90;;;;;;5030820;28;20025;-81
2021/08/14 09:18:58;;;;;;;2.63;0.90;;;30.20;62.30;;;;;;5031351;28;20105;-81
2021/08/14 09:21:34;;;;;;;;;;;30.40;62.30;;;;;;5031732;28;20040;-83
2021/08/14 09:24:04;;;;;;;0.50;0.50;;;30.60;61.40;;;;;;5031124;28;19912;-77
2021/08/14 09:26:37;;;;;;;10.73;2.67;;;30.70;61.90;;;;;;5034908;28;20100;-79
2021/08/14 09:29:05;;;;;;;0.93;0.82;;;30.70;62.00;;;;;;5035289;28;20037;-79
2021/08/14 09:31:50;;;;;;;0.57;0.52;;;30.80;61.50;;;;;;5034709;28;20033;-76
2021/08/14 09:34:21;;;;;;;0.82;0.82;;;31.00;60.50;;;;;;5035212;28;20041;-80
2021/08/14 09:37:06;;;;;;;1.25;1.13;;;30.90;61.40;;;;;;5034778;28;20028;-85
2021/08/14 09:39:47;;;;;;;1.25;0.93;;;31.00;61.10;;;;;;5035356;28;20144;-83
2021/08/14 09:42:13;;;;;;;1.02;0.93;;;31.30;61.70;;;;;;5016652;28;20120;-79
2021/08/14 09:44:39;;;;;;;0.70;0.70;;;31.50;61.50;;;;;;5034856;28;20155;-80
2021/08/14 09:47:09;;;;;;;0.35;0.35;;;31.50;61.00;;;;;;5034981;28;20359;-81
2021/08/14 09:49:54;;;;;;;0.77;0.70;;;31.20;59.60;;;;;;5017253;28;20049;-83
2021/08/14 09:52:23;;;;;;;0.30;0.30;;;30.90;60.20;;;;;;5016383;28;20468;-81
2021/08/14 09:54:49;;;;;;;0.50;0.45;;;31.30;63.30;;;;;;5034658;28;20108;-83
2021/08/14 09:57:19;;;;;;;0.95;0.82;;;31.60;63.60;;;;;;5016602;28;20029;-76
2021/08/14 09:59:48;;;;;;;;;;;31.70;60.80;;;;;;5034800;28;20029;-84
2021/08/14 10:02:17;;;;;;;0.60;0.47;;;31.50;60.00;;;;;;5034058;28;20273;-81
2021/08/14 10:04:47;;;;;;;0.40;0.40;;;31.60;59.60;;;;;;5034580;28;20025;-83
2021/08/14 10:07:16;;;;;;;4.53;0.75;;;31.60;58.90;;;;;;5034281;28;20028;-83
2021/08/14 10:09:43;;;;;;;0.30;0.30;;;31.60;59.70;;;;;;5035050;28;20439;-78
2021/08/14 10:12:11;;;;;;;0.43;0.40;;;31.90;59.40;;;;;;5033797;28;20049;-79
2021/08/14 10:14:38;;;;;;;0.40;0.40;;;32.00;58.10;;;;;;5034517;28;20041;-79
2021/08/14 10:17:09;;;;;;;1.98;1.48;;;32.20;58.00;;;;;;5034313;28;20029;-79
2021/08/14 10:19:35;;;;;;;2.17;1.45;;;32.40;58.10;;;;;;5034532;28;20021;-77
2021/08/14 10:22:02;;;;;;;5.32;3.92;;;32.20;56.80;;;;;;5033990;28;20041;-74
2021/08/14 10:24:55;;;;;;;7.78;4.03;;;32.20;57.70;;;;;;5034259;28;20022;-78
2021/08/14 10:27:22;;;;;;;4.32;2.90;;;32.50;57.10;;;;;;5029360;28;20497;-77
2021/08/14 10:29:53;;;;;;;3.13;2.42;;;32.60;56.50;;;;;;5034086;28;20060;-75
2021/08/14 10:32:34;;;;;;;4.47;3.20;;;32.60;56.20;;;;;;5034221;28;20112;-78
2021/08/14 10:35:23;;;;;;;3.78;3.05;;;33.00;56.80;;;;;;5033989;28;20022;-75
2021/08/14 10:37:50;;;;;;;1.15;1.05;;;33.00;56.00;;;;;;5032831;28;20037;-78
2021/08/14 10:40:18;;;;;;;0.85;0.57;;;32.90;55.80;;;;;;5034110;28;20053;-76
2021/08/14 10:43:08;;;;;;;2.03;1.58;;;33.00;55.40;;;;;;5033751;28;20474;-76
2021/08/14 10:45:37;;;;;;;0.60;0.60;;;33.20;55.20;;;;;;5033749;28;20087;-77
2021/08/14 10:48:06;;;;;;;1.38;1.27;;;32.90;55.10;;;;;;5033622;28;20105;-77
2021/08/14 10:50:32;;;;;;;0.88;0.77;;;33.10;55.10;;;;;;5033983;28;20036;-79
2021/08/14 10:53:10;;;;;;;1.65;1.00;;;32.50;55.30;;;;;;5033581;28;20030;-77
2021/08/14 10:55:46;;;;;;;0.95;0.82;;;33.20;55.40;;;;;;5015500;28;20423;-79
2021/08/14 10:58:28;;;;;;;1.33;0.95;;;33.50;54.40;;;;;;5032683;28;20028;-78
2021/08/14 11:01:02;;;;;;;0.50;0.50;;;33.30;53.80;;;;;;5034058;28;20037;-79
2021/08/14 11:03:35;;;;;;;0.70;0.68;;;33.40;53.70;;;;;;5033642;28;20118;-78
2021/08/14 11:06:29;;;;;;;0.73;0.63;;;33.40;52.30;;;;;;5033299;28;20022;-76
2021/08/14 11:09:16;;;;;;;2.53;2.22;;;33.30;52.70;;;;;;5033417;28;20033;-77
2021/08/14 11:11:49;;;;;;;7.05;5.88;;;33.30;53.10;;;;;;5033003;28;20045;-80
2021/08/14 11:14:16;;;;;;;2.60;2.35;;;33.50;53.20;;;;;;5033053;28;20022;-77
2021/08/14 11:16:59;;;;;;;0.65;0.65;;;33.50;54.40;;;;;;5015754;28;20140;-77
2021/08/14 11:19:51;;;;;;;0.70;0.57;;;33.30;52.70;;;;;;5033156;28;20036;-81
2021/08/14 11:22:17;;;;;;;0.43;0.43;;;33.20;53.10;;;;;;5032779;28;20432;-79
2021/08/14 11:24:44;;;;;;;0.70;0.63;;;33.20;53.40;;;;;;5033059;28;20544;-83
2021/08/14 11:27:34;;;;;;;0.75;0.50;;;33.00;53.60;;;;;;5032995;28;20056;-82
2021/08/14 11:30:10;;;;;;;0.93;0.70;;;32.50;54.00;;;;;;5005571;28;20042;-81
2021/08/14 11:32:36;;;;;;;2.25;1.45;;;32.80;54.60;;;;;;5014987;28;20037;-84
2021/08/14 11:35:05;;;;;;;0.30;0.30;;;32.60;53.90;;;;;;5014958;28;20017;-78
2021/08/14 11:37:31;;;;;;;1.60;0.93;;;32.80;54.60;;;;;;5032846;28;20029;-80
2021/08/14 11:40:03;;;;;;;0.55;0.50;;;32.80;52.30;;;;;;5032577;28;20366;-81
2021/08/14 11:42:30;;;;;;;0.68;0.68;;;33.00;54.40;;;;;;5014930;28;20034;-81
2021/08/14 11:44:57;;;;;;;1.00;0.70;;;33.30;53.70;;;;;;5032634;28;20030;-78
2021/08/14 11:47:32;;;;;;;0.75;0.40;;;33.00;53.10;;;;;;5032276;28;20029;-79
2021/08/14 11:50:00;;;;;;;0.60;0.60;;;33.10;53.90;;;;;;5032834;28;20381;-80
2021/08/14 11:52:27;;;;;;;0.40;0.40;;;33.40;54.20;;;;;;5032485;28;20407;-79
2021/08/14 11:55:20;;;;;;;0.65;0.65;;;33.70;54.40;;;;;;5032431;28;20499;-78
2021/08/14 11:57:46;;;;;;;1.25;0.77;;;34.10;54.40;;;;;;5029387;28;20456;-78
2021/08/14 12:00:17;;;;;;;0.85;0.68;;;34.20;53.20;;;;;;5032421;28;20552;-79
2021/08/14 12:02:48;;;;;;;0.40;0.40;;;33.90;53.00;;;;;;5032265;28;20116;-79
2021/08/14 12:05:22;;;;;;;2.40;1.17;;;34.10;53.10;;;;;;5032041;28;20382;-79
2021/08/14 12:07:47;;;;;;;0.90;0.57;;;33.90;51.60;;;;;;5032475;28;20547;-77
2021/08/14 12:10:14;;;;;;;1.70;0.57;;;34.30;54.40;;;;;;5032420;28;20596;-78
2021/08/14 12:12:39;;;;;;;0.30;0.30;;;34.30;51.10;;;;;;5014179;28;20026;-83
2021/08/14 12:15:12;;;;;;;0.70;0.55;;;34.50;50.80;;;;;;5013990;28;20057;-82
2021/08/14 12:17:44;;;;;;;0.52;0.50;;;34.20;49.90;;;;;;5031857;28;20021;-80
2021/08/14 12:20:11;;;;;;;0.80;0.70;;;34.00;50.60;;;;;;5014105;28;20499;-81
2021/08/14 12:22:37;;;;;;;0.55;0.47;;;34.30;50.90;;;;;;5032359;28;20453;-80
2021/08/14 12:25:23;;;;;;;4.60;2.42;;;34.60;51.70;;;;;;5031900;28;20040;-82
2021/08/14 12:27:49;;;;;;;0.50;0.43;;;34.10;50.30;;;;;;5031826;28;20060;-79
2021/08/14 12:30:21;;;;;;;0.93;0.82;;;34.00;50.30;;;;;;5032145;28;20036;-81
2021/08/14 12:32:48;;;;;;;0.38;0.38;;;34.40;50.40;;;;;;5031589;28;20033;-80
2021/08/14 12:35:20;;;;;;;2.15;1.40;;;34.40;50.10;;;;;;5031536;28;20026;-79
2021/08/14 12:37:46;;;;;;;3.80;2.90;;;34.80;50.00;;;;;;5031921;28;20026;-79
2021/08/14 12:40:15;;;;;;;1.70;0.75;;;34.60;50.40;;;;;;5031534;28;20021;-80
2021/08/14 12:42:41;;;;;;;0.40;0.40;;;34.60;50.40;;;;;;5031653;28;20491;-78
2021/08/14 12:45:22;;;;;;;0.43;0.43;;;34.80;49.70;;;;;;5032030;28;20497;-79
2021/08/14 12:47:52;;;;;;;0.40;0.40;;;35.00;49.60;;;;;;5013861;28;20040;-80
2021/08/14 12:50:33;;;;;;;0.55;0.55;;;35.30;50.30;;;;;;5014209;28;20413;-81
2021/08/14 12:53:05;;;;;;;0.68;0.57;;;35.40;49.40;;;;;;5031525;28;20033;-76